Time;durP1;ratioP1;P1;durP2;ratioP2;P2;SDS_P1;SDS_P2;PMS_P1;PMS_P2;Temp;Humidity;BMP_temperature;BMP_pressure;BME280_temperature;BME280_humidity;BME280_pressure;Samples;Min_cycle;Max_cycle;Signal;HPM_P1;HPM_P2
2022/10/27 00:02:18;;;;;;;25.38;15.32;;;;;;;;;;5025032;28;20039;-84
2022/10/27 00:04:45;;;;;;;35.17;16.45;;;;;;;;;;4997073;28;20116;-83
2022/10/27 00:07:16;;;;;;;29.35;16.13;;;;;;;;;;5027508;28;20033;-83
2022/10/27 00:09:42;;;;;;;26.02;15.38;;;;;;;;;;5019161;28;20093;-84
2022/10/27 00:12:08;;;;;;;26.33;15.63;;;;;;;;;;5006889;28;20502;-83
2022/10/27 00:14:35;;;;;;;28.55;17.63;;;;;;;;;;5010848;28;20087;-83
2022/10/27 00:17:01;;;;;;;29.67;16.77;;;;;;;;;;5026877;28;20105;-84
2022/10/27 00:19:27;;;;;;;31.92;16.38;;;;;;;;;;5001452;28;20045;-83
2022/10/27 00:21:53;;;;;;;27.58;16.10;;;;;;;;;;5009786;28;20094;-83
2022/10/27 00:24:23;;;;;;;30.35;16.65;;;;;;;;;;5012733;28;20022;-83
2022/10/27 00:26:49;;;;;;;25.33;16.13;;;;;;;;;;5026545;28;20026;-83
2022/10/27 00:29:15;;;;;;;28.35;16.75;;;;;;;;;;5027527;28;20069;-83
2022/10/27 00:31:41;;;;;;;27.55;15.95;;;;;;;;;;5003112;28;20370;-82
2022/10/27 00:34:07;;;;;;;28.63;16.73;;;;;;;;;;5007396;28;20018;-83
2022/10/27 00:36:33;;;;;;;27.15;15.32;;;;;;;;;;5008092;28;20030;-83
2022/10/27 00:39:00;;;;;;;26.95;15.75;;;;;;;;;;5029920;28;20026;-84
2022/10/27 00:41:28;;;;;;;38.67;17.05;;;;;;;;;;5047775;28;20548;-83
2022/10/27 00:43:55;;;;;;;35.75;16.17;;;;;;;;;;5027649;28;20026;-83
2022/10/27 00:46:31;;;;;;;62.08;18.10;;;;;;;;;;5020563;28;20042;-83
2022/10/27 00:49:01;;;;;;;60.97;17.13;;;;;;;;;;5023138;28;20033;-83
2022/10/27 00:51:27;;;;;;;30.00;15.95;;;;;;;;;;5019881;28;20022;-83
2022/10/27 00:53:54;;;;;;;39.75;16.13;;;;;;;;;;5023657;28;20032;-83
2022/10/27 00:56:21;;;;;;;39.92;17.25;;;;;;;;;;4990584;28;20038;-83
2022/10/27 00:58:48;;;;;;;26.83;15.35;;;;;;;;;;5005181;28;20033;-83
2022/10/27 01:01:15;;;;;;;54.28;17.75;;;;;;;;;;5000632;28;20054;-84
2022/10/27 01:03:42;;;;;;;28.55;15.43;;;;;;;;;;5000841;28;20034;-83
2022/10/27 01:06:08;;;;;;;27.98;15.93;;;;;;;;;;4996571;28;20032;-83
2022/10/27 01:08:35;;;;;;;36.65;16.75;;;;;;;;;;5017063;28;20030;-83
2022/10/27 01:11:01;;;;;;;29.80;15.63;;;;;;;;;;4988487;28;20030;-83
2022/10/27 01:13:28;;;;;;;51.03;16.95;;;;;;;;;;4998256;28;20054;-83
2022/10/27 01:16:00;;;;;;;62.42;17.85;;;;;;;;;;5024690;28;20080;-84
2022/10/27 01:18:32;;;;;;;59.30;18.42;;;;;;;;;;5026203;28;20358;-84
2022/10/27 01:21:36;;;;;;;56.33;17.97;;;;;;;;;;5003150;28;20026;-83
2022/10/27 01:24:22;;;;;;;22.95;14.10;;;;;;;;;;4947965;29;20075;-84
2022/10/27 01:26:50;;;;;;;27.40;15.70;;;;;;;;;;4962702;29;20035;-83
2022/10/27 01:29:34;;;;;;;37.85;16.88;;;;;;;;;;4968216;28;20105;-84
2022/10/27 01:32:16;;;;;;;39.88;16.63;;;;;;;;;;5021059;28;20404;-84
2022/10/27 01:34:44;;;;;;;38.20;16.52;;;;;;;;;;4993742;28;20025;-85
2022/10/27 01:37:18;;;;;;;31.13;15.88;;;;;;;;;;5028854;28;20057;-84
2022/10/27 01:39:50;;;;;;;35.45;16.25;;;;;;;;;;5023653;28;20026;-84
2022/10/27 01:42:28;;;;;;;30.02;16.65;;;;;;;;;;5008776;28;20054;-84
2022/10/27 01:44:56;;;;;;;29.35;15.60;;;;;;;;;;5022435;28;20022;-84
2022/10/27 01:47:23;;;;;;;25.80;15.27;;;;;;;;;;5003510;28;20509;-84
2022/10/27 01:49:55;;;;;;;30.85;14.90;;;;;;;;;;5024252;28;20034;-85
2022/10/27 01:52:36;;;;;;;27.63;15.02;;;;;;;;;;5007330;28;20048;-85
2022/10/27 01:55:03;;;;;;;24.25;13.02;;;;;;;;;;5006515;28;20034;-84
2022/10/27 01:57:37;;;;;;;26.15;13.75;;;;;;;;;;5000222;28;20060;-84
2022/10/27 02:00:05;;;;;;;22.33;13.88;;;;;;;;;;5017377;28;20401;-84
2022/10/27 02:02:43;;;;;;;22.65;13.13;;;;;;;;;;4987039;28;20053;-84
2022/10/27 02:05:13;;;;;;;21.30;12.77;;;;;;;;;;4996680;28;20033;-84
2022/10/27 02:07:48;;;;;;;19.75;13.25;;;;;;;;;;4993825;28;20029;-84
2022/10/27 02:10:28;;;;;;;23.17;14.05;;;;;;;;;;5003271;28;20030;-85
2022/10/27 02:12:56;;;;;;;20.98;13.10;;;;;;;;;;5006752;28;20030;-85
2022/10/27 02:15:30;;;;;;;25.75;14.05;;;;;;;;;;4991117;28;20066;-85
2022/10/27 02:18:06;;;;;;;21.17;13.23;;;;;;;;;;5004727;28;20029;-83
2022/10/27 02:20:35;;;;;;;20.65;12.65;;;;;;;;;;5028506;28;20036;-84
2022/10/27 02:23:06;;;;;;;20.75;12.93;;;;;;;;;;5007473;28;20052;-84
2022/10/27 02:25:34;;;;;;;18.67;11.93;;;;;;;;;;5010747;28;20022;-85
2022/10/27 02:28:02;;;;;;;26.38;13.52;;;;;;;;;;5011546;28;20030;-83
2022/10/27 02:30:30;;;;;;;27.58;12.52;;;;;;;;;;5006473;28;20042;-83
2022/10/27 02:32:56;;;;;;;21.58;12.68;;;;;;;;;;5010122;28;20037;-84
2022/10/27 02:35:22;;;;;;;25.98;14.13;;;;;;;;;;4993689;28;20101;-85
2022/10/27 02:37:48;;;;;;;28.40;14.55;;;;;;;;;;4991775;28;20027;-85
2022/10/27 02:40:14;;;;;;;35.55;14.90;;;;;;;;;;5003278;28;20018;-85
2022/10/27 02:42:40;;;;;;;28.35;16.08;;;;;;;;;;5015172;28;20037;-85
2022/10/27 02:45:07;;;;;;;33.08;15.77;;;;;;;;;;5025648;28;20114;-85
2022/10/27 02:47:33;;;;;;;36.00;17.15;;;;;;;;;;5002680;28;20030;-84
2022/10/27 02:49:59;;;;;;;32.95;15.45;;;;;;;;;;5000043;28;20085;-84
2022/10/27 02:52:25;;;;;;;47.30;16.80;;;;;;;;;;4998374;28;20041;-84
2022/10/27 02:54:51;;;;;;;40.20;14.88;;;;;;;;;;5004504;28;20098;-85
2022/10/27 02:57:18;;;;;;;37.95;15.50;;;;;;;;;;5006076;28;20038;-85
2022/10/27 02:59:44;;;;;;;25.42;14.43;;;;;;;;;;5000172;28;20054;-85
2022/10/27 03:02:10;;;;;;;24.77;13.80;;;;;;;;;;5019864;28;20042;-85
2022/10/27 03:04:36;;;;;;;26.73;13.63;;;;;;;;;;5003921;28;20385;-85
2022/10/27 03:07:03;;;;;;;28.10;14.25;;;;;;;;;;5025506;28;20029;-85
2022/10/27 03:09:29;;;;;;;22.70;13.30;;;;;;;;;;5029555;28;20060;-85
2022/10/27 03:11:55;;;;;;;26.58;14.10;;;;;;;;;;5009879;28;20034;-84
2022/10/27 03:14:22;;;;;;;27.02;14.13;;;;;;;;;;5028945;28;20022;-85
2022/10/27 03:16:48;;;;;;;25.52;14.00;;;;;;;;;;5007809;28;20034;-85
2022/10/27 03:19:14;;;;;;;24.25;13.25;;;;;;;;;;4999468;28;20049;-85
2022/10/27 03:21:40;;;;;;;22.02;13.25;;;;;;;;;;5007218;28;20028;-83
2022/10/27 03:24:06;;;;;;;24.35;12.65;;;;;;;;;;5014980;28;20049;-85
2022/10/27 03:26:33;;;;;;;26.27;13.57;;;;;;;;;;5008443;28;20026;-84
2022/10/27 03:28:59;;;;;;;23.33;12.38;;;;;;;;;;4996031;28;20033;-84
2022/10/27 03:31:25;;;;;;;22.40;13.32;;;;;;;;;;5022857;28;20109;-84
2022/10/27 03:33:51;;;;;;;22.50;13.07;;;;;;;;;;5010424;28;20049;-85
2022/10/27 03:36:17;;;;;;;22.65;12.85;;;;;;;;;;5007306;28;20053;-84
2022/10/27 03:38:46;;;;;;;19.13;12.07;;;;;;;;;;5010621;28;20033;-85
2022/10/27 03:41:12;;;;;;;21.38;12.50;;;;;;;;;;5007699;28;20018;-85
2022/10/27 03:43:38;;;;;;;20.38;12.25;;;;;;;;;;4991786;28;20030;-85
2022/10/27 03:46:04;;;;;;;24.00;12.32;;;;;;;;;;5004425;28;20026;-84
2022/10/27 03:48:30;;;;;;;20.63;12.38;;;;;;;;;;4991815;28;20026;-85
2022/10/27 03:50:56;;;;;;;19.23;11.30;;;;;;;;;;5004690;28;20021;-85
2022/10/27 03:53:22;;;;;;;22.50;13.57;;;;;;;;;;5010822;28;20045;-86
2022/10/27 03:55:48;;;;;;;20.95;11.82;;;;;;;;;;5020180;28;20129;-85
2022/10/27 03:58:16;;;;;;;19.40;11.40;;;;;;;;;;5025643;28;20030;-84
2022/10/27 04:00:42;;;;;;;21.27;12.77;;;;;;;;;;5025191;28;20041;-84
2022/10/27 04:03:08;;;;;;;21.35;12.55;;;;;;;;;;5010719;28;20049;-85
2022/10/27 04:05:34;;;;;;;18.02;11.65;;;;;;;;;;5009051;28;20022;-85
2022/10/27 04:08:00;;;;;;;23.40;12.48;;;;;;;;;;5009525;28;20058;-84
2022/10/27 04:10:27;;;;;;;19.17;10.95;;;;;;;;;;5008907;28;20049;-84
2022/10/27 04:12:54;;;;;;;20.33;11.48;;;;;;;;;;5023455;28;20052;-85
2022/10/27 04:15:21;;;;;;;18.02;10.90;;;;;;;;;;5009342;28;20097;-85
2022/10/27 04:17:47;;;;;;;19.40;11.40;;;;;;;;;;5026133;28;20028;-86
2022/10/27 04:20:14;;;;;;;17.75;11.32;;;;;;;;;;5007488;28;20026;-85
2022/10/27 04:22:40;;;;;;;20.48;13.00;;;;;;;;;;5025876;28;20105;-84
2022/10/27 04:25:07;;;;;;;21.75;12.32;;;;;;;;;;5008210;28;20033;-85
2022/10/27 04:27:33;;;;;;;19.30;12.10;;;;;;;;;;5008510;28;20029;-85
2022/10/27 04:29:59;;;;;;;22.15;11.43;;;;;;;;;;5008164;28;20022;-86
2022/10/27 04:32:25;;;;;;;20.35;11.30;;;;;;;;;;5007985;28;20120;-85
2022/10/27 04:34:51;;;;;;;24.58;16.17;;;;;;;;;;5026395;28;20045;-85
2022/10/27 04:37:17;;;;;;;20.20;11.80;;;;;;;;;;5016249;28;20025;-85
2022/10/27 04:39:43;;;;;;;19.98;11.85;;;;;;;;;;5003950;28;20057;-85
2022/10/27 04:42:10;;;;;;;21.27;9.88;;;;;;;;;;4998078;28;20025;-85
2022/10/27 04:44:36;;;;;;;27.17;11.20;;;;;;;;;;5008248;28;20393;-85
2022/10/27 04:47:02;;;;;;;28.52;13.57;;;;;;;;;;5025461;28;20176;-85
2022/10/27 04:49:29;;;;;;;22.67;13.20;;;;;;;;;;5026319;28;20025;-85
2022/10/27 04:51:55;;;;;;;24.05;14.48;;;;;;;;;;5011462;28;20029;-85
2022/10/27 04:54:21;;;;;;;21.52;12.13;;;;;;;;;;5002662;28;20026;-85
2022/10/27 04:56:48;;;;;;;21.08;10.93;;;;;;;;;;4994388;28;20028;-85
2022/10/27 04:59:14;;;;;;;16.85;11.23;;;;;;;;;;5025692;28;20018;-85
2022/10/27 05:01:40;;;;;;;21.77;11.65;;;;;;;;;;5005929;28;20137;-84
2022/10/27 05:04:08;;;;;;;20.30;11.27;;;;;;;;;;5003947;28;20090;-84
2022/10/27 05:06:34;;;;;;;18.25;11.02;;;;;;;;;;5009937;28;20022;-86
2022/10/27 05:09:01;;;;;;;18.58;11.32;;;;;;;;;;5006224;28;20053;-85
2022/10/27 05:11:27;;;;;;;18.05;10.57;;;;;;;;;;4989715;28;20033;-86
2022/10/27 05:13:53;;;;;;;23.23;10.60;;;;;;;;;;5004352;28;20022;-85
2022/10/27 05:16:19;;;;;;;21.55;11.93;;;;;;;;;;5008586;28;20018;-84
2022/10/27 05:18:45;;;;;;;18.15;10.82;;;;;;;;;;4994995;28;20015;-85
2022/10/27 05:21:11;;;;;;;27.88;11.85;;;;;;;;;;4985716;28;20035;-84
2022/10/27 05:23:37;;;;;;;22.98;10.95;;;;;;;;;;4991137;28;20031;-84
2022/10/27 05:26:03;;;;;;;20.17;11.93;;;;;;;;;;4997717;28;20030;-84
2022/10/27 05:28:29;;;;;;;22.17;10.73;;;;;;;;;;5005000;28;20090;-85
2022/10/27 05:30:59;;;;;;;19.05;11.15;;;;;;;;;;5006295;28;20040;-86
2022/10/27 05:33:26;;;;;;;18.55;10.13;;;;;;;;;;5004460;28;20034;-85
2022/10/27 05:35:53;;;;;;;15.90;9.70;;;;;;;;;;5006528;28;20034;-85
2022/10/27 05:38:19;;;;;;;20.02;10.55;;;;;;;;;;5005467;28;20033;-85
2022/10/27 05:40:46;;;;;;;16.58;10.20;;;;;;;;;;4998020;28;20037;-86
2022/10/27 05:43:12;;;;;;;14.98;9.80;;;;;;;;;;4998962;28;20023;-85
2022/10/27 05:45:39;;;;;;;17.70;10.60;;;;;;;;;;5006215;28;20011;-86
2022/10/27 05:48:06;;;;;;;18.58;10.27;;;;;;;;;;5006336;28;20026;-86
2022/10/27 05:50:32;;;;;;;16.30;9.68;;;;;;;;;;4997829;28;20041;-85
2022/10/27 05:52:59;;;;;;;20.23;9.23;;;;;;;;;;5014365;28;20042;-84
2022/10/27 05:55:25;;;;;;;19.52;10.27;;;;;;;;;;5000190;28;20069;-85
2022/10/27 05:57:55;;;;;;;24.83;9.88;;;;;;;;;;4993811;28;20022;-86
2022/10/27 06:00:22;;;;;;;24.08;10.30;;;;;;;;;;5006984;28;20479;-86
2022/10/27 06:02:48;;;;;;;25.48;9.75;;;;;;;;;;5007851;28;20038;-87
2022/10/27 06:05:15;;;;;;;18.35;10.07;;;;;;;;;;5007166;28;20046;-86
2022/10/27 06:07:42;;;;;;;15.50;9.07;;;;;;;;;;5006840;28;20045;-86
2022/10/27 06:10:08;;;;;;;18.15;10.68;;;;;;;;;;5006333;28;20039;-86
2022/10/27 06:12:35;;;;;;;22.33;10.43;;;;;;;;;;4999433;28;20122;-86
2022/10/27 06:15:01;;;;;;;14.13;9.45;;;;;;;;;;4996240;28;20036;-87
2022/10/27 06:17:28;;;;;;;16.27;9.73;;;;;;;;;;5010211;28;20038;-87
2022/10/27 06:19:55;;;;;;;17.73;10.95;;;;;;;;;;5010747;28;20027;-84
2022/10/27 06:22:21;;;;;;;18.65;9.98;;;;;;;;;;5005028;28;20014;-86
2022/10/27 06:24:49;;;;;;;19.67;9.85;;;;;;;;;;5010093;28;20023;-86
2022/10/27 06:27:15;;;;;;;24.52;12.73;;;;;;;;;;5009146;28;20117;-85
2022/10/27 06:29:41;;;;;;;20.85;11.02;;;;;;;;;;5006837;28;20034;-86
2022/10/27 06:32:07;;;;;;;58.53;26.75;;;;;;;;;;4994663;28;20092;-86
2022/10/27 06:34:33;;;;;;;30.58;15.98;;;;;;;;;;5006472;28;20030;-87
2022/10/27 06:37:04;;;;;;;18.23;10.30;;;;;;;;;;5000581;28;20027;-86
2022/10/27 06:39:30;;;;;;;17.00;9.80;;;;;;;;;;5004237;28;20030;-86
2022/10/27 06:41:57;;;;;;;17.00;11.07;;;;;;;;;;5005402;28;20058;-86
2022/10/27 06:44:23;;;;;;;18.20;10.82;;;;;;;;;;5010345;28;20137;-86
2022/10/27 06:46:49;;;;;;;17.73;10.23;;;;;;;;;;5009702;28;20050;-86
2022/10/27 06:49:16;;;;;;;18.33;9.57;;;;;;;;;;5004405;28;20090;-86
2022/10/27 06:51:42;;;;;;;17.02;10.57;;;;;;;;;;5009889;28;20058;-86
2022/10/27 06:54:08;;;;;;;17.42;10.30;;;;;;;;;;5010497;28;20541;-86
2022/10/27 06:56:34;;;;;;;16.83;10.05;;;;;;;;;;5008816;28;20493;-86
2022/10/27 06:59:01;;;;;;;15.60;10.07;;;;;;;;;;5010107;28;20037;-87
2022/10/27 07:01:27;;;;;;;16.65;10.15;;;;;;;;;;5007245;28;20041;-86
2022/10/27 07:03:53;;;;;;;16.00;8.98;;;;;;;;;;5007011;28;20041;-87
2022/10/27 07:06:20;;;;;;;15.75;9.20;;;;;;;;;;5006965;28;20038;-86
2022/10/27 07:08:47;;;;;;;16.17;9.05;;;;;;;;;;4993980;28;20042;-87
2022/10/27 07:11:13;;;;;;;16.45;9.65;;;;;;;;;;5007766;28;20027;-86
2022/10/27 07:13:39;;;;;;;15.88;9.55;;;;;;;;;;5008884;28;20128;-86
2022/10/27 07:16:05;;;;;;;16.13;10.15;;;;;;;;;;5010041;28;20026;-87
2022/10/27 07:18:33;;;;;;;15.65;9.15;;;;;;;;;;5006596;28;20085;-86
2022/10/27 07:21:00;;;;;;;17.40;9.43;;;;;;;;;;5008142;28;20030;-86
2022/10/27 07:23:26;;;;;;;15.52;10.82;;;;;;;;;;5005376;28;20019;-86
2022/10/27 07:25:52;;;;;;;17.65;10.70;;;;;;;;;;4991255;28;20038;-86
2022/10/27 07:28:19;;;;;;;19.25;11.23;;;;;;;;;;5007070;28;20018;-86
2022/10/27 07:30:47;;;;;;;18.00;10.90;;;;;;;;;;5011180;28;20035;-87
2022/10/27 07:33:16;;;;;;;18.38;11.18;;;;;;;;;;5008941;28;20031;-86
2022/10/27 07:35:42;;;;;;;25.23;14.43;;;;;;;;;;5009944;28;20030;-86
2022/10/27 07:38:12;;;;;;;30.02;14.38;;;;;;;;;;5008971;28;20041;-85
2022/10/27 07:40:38;;;;;;;26.17;14.18;;;;;;;;;;5008170;28;20589;-85
2022/10/27 07:43:04;;;;;;;19.70;11.70;;;;;;;;;;5005715;28;20098;-85
2022/10/27 07:45:31;;;;;;;31.23;12.15;;;;;;;;;;5009133;28;20019;-85
2022/10/27 07:47:57;;;;;;;20.83;11.68;;;;;;;;;;5005731;28;20034;-85
2022/10/27 07:50:27;;;;;;;28.23;13.18;;;;;;;;;;5008282;28;20057;-84
2022/10/27 07:52:53;;;;;;;28.67;12.55;;;;;;;;;;5009320;28;20030;-85
2022/10/27 07:55:22;;;;;;;25.17;12.75;;;;;;;;;;4991502;28;20039;-84
2022/10/27 07:57:57;;;;;;;19.27;10.85;;;;;;;;;;4990117;28;20062;-85
2022/10/27 08:00:23;;;;;;;19.75;11.60;;;;;;;;;;4996730;28;20031;-85
2022/10/27 08:02:49;;;;;;;15.77;10.65;;;;;;;;;;5009673;28;20045;-85
2022/10/27 08:05:15;;;;;;;18.38;11.95;;;;;;;;;;5010023;28;20037;-85
2022/10/27 08:07:42;;;;;;;18.63;11.13;;;;;;;;;;5010091;28;20034;-85
2022/10/27 08:10:09;;;;;;;24.77;11.55;;;;;;;;;;5006052;28;20022;-85
2022/10/27 08:12:40;;;;;;;17.70;10.63;;;;;;;;;;5008911;28;20114;-84
2022/10/27 08:15:07;;;;;;;20.60;13.52;;;;;;;;;;5009272;28;20033;-84
2022/10/27 08:17:42;;;;;;;21.42;12.25;;;;;;;;;;5009820;28;20099;-84
2022/10/27 08:20:09;;;;;;;16.45;10.88;;;;;;;;;;4998924;28;20030;-84
2022/10/27 08:22:36;;;;;;;16.42;10.63;;;;;;;;;;5009443;28;20033;-84
2022/10/27 08:25:02;;;;;;;13.73;9.38;;;;;;;;;;5009299;28;20046;-84
2022/10/27 08:27:28;;;;;;;15.20;9.98;;;;;;;;;;5008813;28;20023;-84
2022/10/27 08:29:55;;;;;;;14.10;9.77;;;;;;;;;;5006096;28;20089;-84
2022/10/27 08:32:21;;;;;;;18.98;10.43;;;;;;;;;;5008548;28;20037;-83
2022/10/27 08:34:50;;;;;;;14.57;9.50;;;;;;;;;;5008654;28;20038;-84
2022/10/27 08:37:16;;;;;;;14.88;9.52;;;;;;;;;;5008218;28;20054;-84
2022/10/27 08:39:42;;;;;;;15.25;10.73;;;;;;;;;;5011100;28;20023;-85
2022/10/27 08:42:12;;;;;;;18.25;11.05;;;;;;;;;;5011303;28;20036;-84
2022/10/27 08:44:43;;;;;;;14.18;10.52;;;;;;;;;;5011636;28;20125;-84
2022/10/27 08:47:28;;;;;;;16.88;11.18;;;;;;;;;;5010208;28;20026;-84
2022/10/27 08:49:58;;;;;;;16.50;11.52;;;;;;;;;;5008110;28;20038;-84
2022/10/27 08:52:29;;;;;;;16.88;11.18;;;;;;;;;;5008750;28;20502;-84
2022/10/27 08:55:01;;;;;;;19.40;11.93;;;;;;;;;;5008498;28;20121;-84
2022/10/27 08:57:29;;;;;;;16.60;11.68;;;;;;;;;;5008529;28;20030;-82
2022/10/27 08:59:57;;;;;;;18.17;11.82;;;;;;;;;;5007368;28;20022;-82
2022/10/27 09:02:24;;;;;;;18.35;11.65;;;;;;;;;;5012247;28;20054;-83
2022/10/27 09:05:08;;;;;;;15.65;11.07;;;;;;;;;;5006892;28;20022;-84
2022/10/27 09:07:36;;;;;;;17.27;11.00;;;;;;;;;;5012982;28;20030;-83
2022/10/27 09:10:11;;;;;;;21.48;14.07;;;;;;;;;;5012135;28;20059;-83
2022/10/27 09:13:13;;;;;;;24.77;14.77;;;;;;;;;;5030052;28;20053;-83
2022/10/27 09:15:41;;;;;;;27.45;17.50;;;;;;;;;;4970606;29;20041;-82
2022/10/27 09:18:11;;;;;;;27.52;16.65;;;;;;;;;;5013443;28;20074;-82
2022/10/27 09:20:42;;;;;;;32.75;18.20;;;;;;;;;;5007999;28;20018;-83
2022/10/27 09:23:16;;;;;;;29.17;17.60;;;;;;;;;;4990577;28;20051;-83
2022/10/27 09:25:42;;;;;;;23.83;16.30;;;;;;;;;;4998008;28;20027;-83
2022/10/27 09:28:38;;;;;;;28.60;16.65;;;;;;;;;;5007282;28;20610;-83
2022/10/27 09:31:05;;;;;;;21.02;14.43;;;;;;;;;;4954850;28;20049;-83
2022/10/27 09:33:35;;;;;;;26.70;16.52;;;;;;;;;;4990511;28;20490;-83
2022/10/27 09:36:21;;;;;;;24.48;16.77;;;;;;;;;;4988548;28;20034;-82
2022/10/27 09:38:47;;;;;;;21.95;14.73;;;;;;;;;;5015915;28;20045;-83
2022/10/27 09:41:14;;;;;;;22.25;15.00;;;;;;;;;;5026497;28;20112;-82
2022/10/27 09:43:43;;;;;;;23.08;14.63;;;;;;;;;;5026654;28;20101;-82
2022/10/27 09:46:22;;;;;;;19.23;13.15;;;;;;;;;;5007256;28;20014;-82
2022/10/27 09:48:50;;;;;;;18.27;11.73;;;;;;;;;;4998102;28;20528;-82
2022/10/27 09:51:22;;;;;;;16.88;11.95;;;;;;;;;;5026257;28;20113;-83
2022/10/27 09:53:55;;;;;;;18.10;11.98;;;;;;;;;;5026601;28;20089;-82
2022/10/27 09:56:24;;;;;;;17.92;11.50;;;;;;;;;;5026532;28;20018;-82
2022/10/27 09:59:03;;;;;;;16.17;12.25;;;;;;;;;;5008575;28;20026;-83
2022/10/27 10:01:39;;;;;;;17.23;12.32;;;;;;;;;;5025714;28;20494;-82
2022/10/27 10:04:06;;;;;;;21.75;14.57;;;;;;;;;;5028017;28;20022;-81
2022/10/27 10:06:36;;;;;;;22.67;15.68;;;;;;;;;;5009807;28;20038;-82
2022/10/27 10:09:23;;;;;;;22.88;15.68;;;;;;;;;;5009665;28;20029;-82
2022/10/27 10:12:09;;;;;;;23.10;16.17;;;;;;;;;;5026665;28;20018;-83
2022/10/27 10:14:35;;;;;;;19.77;14.13;;;;;;;;;;5025921;28;20037;-83
2022/10/27 10:17:04;;;;;;;20.02;14.30;;;;;;;;;;5026296;28;20032;-82
2022/10/27 10:19:30;;;;;;;21.50;15.60;;;;;;;;;;5026898;28;20032;-82
2022/10/27 10:21:59;;;;;;;22.55;15.00;;;;;;;;;;5025795;28;20022;-83
2022/10/27 10:24:30;;;;;;;22.42;17.25;;;;;;;;;;5016006;28;20022;-83
2022/10/27 10:26:57;;;;;;;20.98;14.07;;;;;;;;;;5005400;28;20030;-83
2022/10/27 10:29:34;;;;;;;21.95;15.90;;;;;;;;;;5017606;28;20026;-83
2022/10/27 10:32:12;;;;;;;23.05;15.50;;;;;;;;;;5008368;28;20109;-82
2022/10/27 10:34:38;;;;;;;22.77;15.30;;;;;;;;;;5008324;28;20037;-83
2022/10/27 10:37:24;;;;;;;20.35;14.88;;;;;;;;;;5008367;28;20486;-83
2022/10/27 10:39:51;;;;;;;19.60;15.23;;;;;;;;;;5004755;28;20028;-83
2022/10/27 10:42:17;;;;;;;22.08;15.20;;;;;;;;;;5004135;28;20054;-83
2022/10/27 10:44:44;;;;;;;19.83;15.55;;;;;;;;;;5006683;28;20117;-83
2022/10/27 10:47:22;;;;;;;19.55;14.60;;;;;;;;;;5005192;28;20031;-83
2022/10/27 10:49:51;;;;;;;20.13;15.25;;;;;;;;;;5020345;28;20026;-83
2022/10/27 10:52:32;;;;;;;20.33;15.38;;;;;;;;;;5005474;28;20030;-82
2022/10/27 10:54:58;;;;;;;21.85;15.95;;;;;;;;;;5004571;28;20517;-82
2022/10/27 10:57:28;;;;;;;21.08;15.85;;;;;;;;;;5006329;28;20034;-81
2022/10/27 10:59:55;;;;;;;19.90;15.32;;;;;;;;;;4990259;28;20018;-82
2022/10/27 11:02:42;;;;;;;21.63;15.70;;;;;;;;;;5007463;28;20046;-83
2022/10/27 11:08:11;;;;;;;;;;;;;;;;;;5012919;28;20110;-82
2022/10/27 11:17:09;;;;;;;21.30;15.18;;;;;;;;;;5003740;28;20029;-83
2022/10/27 11:22:40;;;;;;;23.92;16.30;;;;;;;;;;5010242;28;20033;-81
2022/10/27 11:25:10;;;;;;;19.75;15.00;;;;;;;;;;5002173;28;20028;-80
2022/10/27 11:27:56;;;;;;;16.70;13.95;;;;;;;;;;4990253;28;20022;-81
2022/10/27 11:30:26;;;;;;;18.25;14.88;;;;;;;;;;5015188;28;20030;-84
2022/10/27 11:33:11;;;;;;;18.50;14.60;;;;;;;;;;5009895;28;20029;-82
2022/10/27 11:35:46;;;;;;;17.48;14.30;;;;;;;;;;5025594;28;20026;-81
2022/10/27 11:38:19;;;;;;;18.77;15.18;;;;;;;;;;5025307;28;20033;-80
2022/10/27 11:40:54;;;;;;;21.90;15.80;;;;;;;;;;5015184;28;20028;-80
2022/10/27 11:43:29;;;;;;;17.67;15.18;;;;;;;;;;5009668;28;20040;-81
2022/10/27 11:45:55;;;;;;;19.25;14.65;;;;;;;;;;5025902;28;20076;-81
2022/10/27 11:48:30;;;;;;;20.30;14.80;;;;;;;;;;5026342;28;20033;-81
2022/10/27 11:51:22;;;;;;;21.80;16.88;;;;;;;;;;5025941;28;20025;-80
2022/10/27 11:53:51;;;;;;;20.37;14.93;;;;;;;;;;5020563;28;20048;-82
2022/10/27 11:56:33;;;;;;;18.92;15.13;;;;;;;;;;4997064;28;20030;-80
2022/10/27 11:59:08;;;;;;;15.40;12.90;;;;;;;;;;5007127;28;20061;-80
2022/10/27 12:02:00;;;;;;;17.05;14.20;;;;;;;;;;5023294;28;20053;-82
2022/10/27 12:04:32;;;;;;;19.15;14.45;;;;;;;;;;5009108;28;20018;-83
2022/10/27 12:06:58;;;;;;;19.30;15.00;;;;;;;;;;5011198;28;20030;-81
2022/10/27 12:09:27;;;;;;;18.60;14.55;;;;;;;;;;5013187;28;20047;-81
2022/10/27 12:12:05;;;;;;;18.20;15.25;;;;;;;;;;5028137;28;20034;-80
2022/10/27 12:14:34;;;;;;;18.63;13.95;;;;;;;;;;5026126;28;20161;-82
2022/10/27 12:17:05;;;;;;;17.77;14.10;;;;;;;;;;5026738;28;20164;-81
2022/10/27 12:19:41;;;;;;;17.52;12.65;;;;;;;;;;4998601;28;20023;-81
2022/10/27 12:22:16;;;;;;;17.70;13.85;;;;;;;;;;5023461;28;20492;-81
2022/10/27 12:24:43;;;;;;;16.88;12.82;;;;;;;;;;5007779;28;20029;-81
2022/10/27 12:27:13;;;;;;;23.38;14.68;;;;;;;;;;5009064;28;20026;-81
2022/10/27 12:29:43;;;;;;;18.83;13.15;;;;;;;;;;5008108;28;20061;-82
2022/10/27 12:32:26;;;;;;;18.67;13.93;;;;;;;;;;5007159;28;20060;-81
2022/10/27 12:34:57;;;;;;;18.27;14.40;;;;;;;;;;5007101;28;20124;-80
2022/10/27 12:37:32;;;;;;;15.98;13.38;;;;;;;;;;4989388;28;20022;-80
2022/10/27 12:40:12;;;;;;;16.77;12.90;;;;;;;;;;4992842;28;20065;-81
2022/10/27 12:42:53;;;;;;;19.42;15.38;;;;;;;;;;5025460;28;20076;-80
2022/10/27 12:45:33;;;;;;;19.02;14.70;;;;;;;;;;5026419;28;20071;-81
2022/10/27 12:48:18;;;;;;;19.63;14.85;;;;;;;;;;5007430;28;20533;-82
2022/10/27 12:50:44;;;;;;;18.20;13.23;;;;;;;;;;5024436;28;20035;-82
2022/10/27 12:53:19;;;;;;;17.55;13.55;;;;;;;;;;5027069;28;20170;-80
2022/10/27 12:55:51;;;;;;;18.65;13.38;;;;;;;;;;5023852;28;20026;-80
2022/10/27 12:58:30;;;;;;;17.38;12.63;;;;;;;;;;5023785;28;20025;-81
2022/10/27 13:01:15;;;;;;;20.77;13.77;;;;;;;;;;5007329;28;20102;-80
2022/10/27 13:03:52;;;;;;;19.40;13.52;;;;;;;;;;5024657;28;20026;-80
2022/10/27 13:06:45;;;;;;;19.45;12.50;;;;;;;;;;5008876;28;20022;-80
2022/10/27 13:09:27;;;;;;;20.20;13.80;;;;;;;;;;4977872;28;20448;-80
2022/10/27 13:11:59;;;;;;;17.73;12.38;;;;;;;;;;5002133;28;20038;-81
2022/10/27 13:14:42;;;;;;;16.75;12.60;;;;;;;;;;5005933;28;20030;-81
2022/10/27 13:17:12;;;;;;;19.00;12.80;;;;;;;;;;4988114;28;20061;-80
2022/10/27 13:19:44;;;;;;;19.17;11.82;;;;;;;;;;5002197;28;20026;-79
2022/10/27 13:22:25;;;;;;;17.48;12.50;;;;;;;;;;5004965;28;20498;-80
2022/10/27 13:25:00;;;;;;;18.70;12.60;;;;;;;;;;4987690;28;20037;-80
2022/10/27 13:27:36;;;;;;;17.80;12.85;;;;;;;;;;4987502;28;20022;-81
2022/10/27 13:30:04;;;;;;;19.38;13.57;;;;;;;;;;5007445;28;20122;-81
2022/10/27 13:32:53;;;;;;;18.25;12.68;;;;;;;;;;5007600;28;20041;-81
2022/10/27 13:35:26;;;;;;;18.38;12.65;;;;;;;;;;5015625;28;20573;-81
2022/10/27 13:37:57;;;;;;;16.90;11.82;;;;;;;;;;5024444;28;20042;-80
2022/10/27 13:40:28;;;;;;;17.63;12.60;;;;;;;;;;5006334;28;20240;-82
2022/10/27 13:43:14;;;;;;;18.92;13.15;;;;;;;;;;5005204;28;20033;-82
2022/10/27 13:45:48;;;;;;;17.73;12.95;;;;;;;;;;4987071;28;20027;-81
2022/10/27 13:48:18;;;;;;;17.10;12.73;;;;;;;;;;4993959;28;20084;-82
2022/10/27 13:50:47;;;;;;;18.33;13.15;;;;;;;;;;5023148;28;20045;-81
2022/10/27 13:53:20;;;;;;;19.50;12.93;;;;;;;;;;5006052;28;20026;-81
2022/10/27 13:55:48;;;;;;;17.23;13.23;;;;;;;;;;5007524;28;20050;-80
2022/10/27 13:58:20;;;;;;;19.45;13.40;;;;;;;;;;5023831;28;20141;-81
2022/10/27 14:00:53;;;;;;;19.15;14.02;;;;;;;;;;5006462;28;20517;-80
2022/10/27 14:03:28;;;;;;;19.63;13.60;;;;;;;;;;5026550;28;20593;-81
2022/10/27 14:05:54;;;;;;;20.52;13.45;;;;;;;;;;5025069;28;20041;-81
2022/10/27 14:08:29;;;;;;;20.55;14.70;;;;;;;;;;5007939;28;20032;-81
2022/10/27 14:10:58;;;;;;;24.55;13.88;;;;;;;;;;5007041;28;20098;-82
2022/10/27 14:13:43;;;;;;;23.48;13.43;;;;;;;;;;5002841;28;20019;-81
2022/10/27 14:16:33;;;;;;;19.17;14.18;;;;;;;;;;4988123;28;20030;-81
2022/10/27 14:19:03;;;;;;;19.50;13.98;;;;;;;;;;4992049;28;20033;-81
2022/10/27 14:21:32;;;;;;;20.30;13.88;;;;;;;;;;5024907;28;20034;-82
2022/10/27 14:24:03;;;;;;;19.75;14.02;;;;;;;;;;5008092;28;20037;-82
2022/10/27 14:26:36;;;;;;;20.45;13.80;;;;;;;;;;5007003;28;20026;-80
2022/10/27 14:29:03;;;;;;;20.70;14.18;;;;;;;;;;5024467;28;20080;-81
2022/10/27 14:31:30;;;;;;;20.23;13.13;;;;;;;;;;5023520;28;20022;-81
2022/10/27 14:33:56;;;;;;;17.00;11.82;;;;;;;;;;5024077;28;20022;-81
2022/10/27 14:36:30;;;;;;;18.45;12.80;;;;;;;;;;5025077;28;20479;-81
2022/10/27 14:39:02;;;;;;;17.15;10.38;;;;;;;;;;5024144;28;20042;-81
2022/10/27 14:41:33;;;;;;;18.27;12.27;;;;;;;;;;5006479;28;20022;-81
2022/10/27 14:44:00;;;;;;;15.55;10.82;;;;;;;;;;5023157;28;20026;-81
2022/10/27 14:46:31;;;;;;;18.90;13.18;;;;;;;;;;5023545;28;20030;-81
2022/10/27 14:49:02;;;;;;;17.08;12.77;;;;;;;;;;5016045;28;20036;-81